createdAt,value
2023-12-16T00:00:07.387Z,-18.33
2023-12-16T00:05:14.833Z,-18.48
2023-12-16T00:10:18.674Z,-18.33
2023-12-16T00:15:22.315Z,-18.34
2023-12-16T00:20:25.428Z,-18.35
2023-12-16T00:25:28.616Z,-18.37
2023-12-16T00:30:31.995Z,-18.35
2023-12-16T00:35:34.882Z,-18.42
2023-12-16T00:40:41.702Z,-18.41
2023-12-16T00:45:56.077Z,-18.45
2023-12-16T00:50:59.018Z,-18.49
2023-12-16T00:56:02.926Z,-18.47
2023-12-16T01:01:06.610Z,-18.52
2023-12-16T01:06:09.647Z,-18.49
2023-12-16T01:11:13.591Z,-18.49
2023-12-16T01:16:16.674Z,-18.55
2023-12-16T01:21:20.314Z,-18.49
2023-12-16T01:26:24.752Z,-18.52
2023-12-16T01:31:28.403Z,-18.44
2023-12-16T01:36:32.763Z,-18.46
2023-12-16T01:41:35.825Z,-18.47
2023-12-16T01:46:40.690Z,-18.47
2023-12-16T01:51:45.678Z,-18.45
2023-12-16T01:56:59.264Z,-18.40
2023-12-16T02:02:02.999Z,-18.47
2023-12-16T02:07:07.389Z,-18.43
2023-12-16T02:12:12.111Z,-18.46
2023-12-16T02:17:15.615Z,-18.39
2023-12-16T02:22:19.051Z,-18.46
2023-12-16T02:27:24.034Z,-18.30
2023-12-16T02:32:27.312Z,-18.27
2023-12-16T02:37:34.510Z,-18.30
2023-12-16T02:42:39.297Z,-18.18
2023-12-16T02:47:43.604Z,-18.22
2023-12-16T02:52:47.570Z,-18.16
2023-12-16T02:57:51.356Z,-18.11
2023-12-16T03:02:54.422Z,-18.04
2023-12-16T03:07:57.333Z,-18.03
2023-12-16T03:13:01.229Z,-18.05
2023-12-16T03:18:04.772Z,-18.03
2023-12-16T03:23:07.974Z,-17.91
2023-12-16T03:28:12.691Z,-17.83
2023-12-16T03:33:16.156Z,-17.93
2023-12-16T03:38:19.587Z,-17.82
2023-12-16T03:43:23.942Z,-17.76
2023-12-16T03:48:27.876Z,-17.74
2023-12-16T03:53:31.110Z,-17.67
2023-12-16T03:58:35.832Z,-17.57
2023-12-16T04:03:39.303Z,-17.53
2023-12-16T04:08:42.788Z,-17.43
2023-12-16T04:13:47.256Z,-17.38
2023-12-16T04:18:50.932Z,-17.37
2023-12-16T04:23:54.357Z,-17.30
2023-12-16T04:28:57.552Z,-17.15
2023-12-16T04:34:00.926Z,-17.03
2023-12-16T04:39:09.216Z,-16.97
2023-12-16T04:44:12.150Z,-17.06
2023-12-16T04:49:15.281Z,-17.06
2023-12-16T04:54:18.830Z,-17.04
2023-12-16T04:59:21.821Z,-16.84
2023-12-16T05:04:25.005Z,-16.81
2023-12-16T05:09:28.577Z,-16.84
2023-12-16T05:14:31.545Z,-16.82
2023-12-16T05:19:34.467Z,-16.76
2023-12-16T05:24:38.574Z,-16.64
2023-12-16T05:29:41.566Z,-16.57
2023-12-16T05:34:44.400Z,-16.49
2023-12-16T05:39:47.863Z,-16.52
2023-12-16T05:44:50.814Z,-16.40
2023-12-16T05:49:53.870Z,-16.35
2023-12-16T05:54:58.080Z,-16.30
2023-12-16T06:00:01.805Z,-16.30
2023-12-16T06:05:09.878Z,-16.27
2023-12-16T06:10:14.625Z,-16.21
2023-12-16T06:15:17.582Z,-16.17
2023-12-16T06:20:21.050Z,-16.17
2023-12-16T06:25:24.529Z,-16.02
2023-12-16T06:30:28.239Z,-15.99
2023-12-16T06:35:31.647Z,-15.85
2023-12-16T06:40:36.097Z,-15.69
2023-12-16T06:45:39.823Z,-15.73
2023-12-16T06:50:42.746Z,-15.74
2023-12-16T06:55:48.775Z,-15.78
2023-12-16T07:00:52.956Z,-15.76
2023-12-16T07:05:56.829Z,-15.73
2023-12-16T07:11:00.185Z,-15.81
2023-12-16T07:16:05.238Z,-15.68
2023-12-16T07:21:09.129Z,-15.58
2023-12-16T07:26:13.534Z,-15.65
2023-12-16T07:31:17.064Z,-15.67
2023-12-16T07:36:20.455Z,-15.74
2023-12-16T07:41:23.966Z,-15.84
2023-12-16T07:46:27.757Z,-15.72
2023-12-16T07:51:30.774Z,-15.75
2023-12-16T07:56:35.637Z,-15.79
2023-12-16T08:01:39.210Z,-16.00
2023-12-16T08:06:42.694Z,-16.17
2023-12-16T08:11:49.901Z,-16.27
2023-12-16T08:16:53.294Z,-16.41
2023-12-16T08:21:56.447Z,-16.59
2023-12-16T08:27:01.361Z,-16.72
2023-12-16T08:32:05.236Z,-16.82
2023-12-16T08:37:09.596Z,-17.00
2023-12-16T08:42:13.526Z,-17.14
2023-12-16T08:47:17.068Z,-17.21
2023-12-16T08:52:20.688Z,-17.19
2023-12-16T08:57:25.521Z,-17.31
2023-12-16T09:02:28.851Z,-17.59
2023-12-16T09:07:33.049Z,-17.86
2023-12-16T09:12:37.508Z,-18.15
2023-12-16T09:17:40.613Z,-18.19
2023-12-16T09:22:43.862Z,-18.22
2023-12-16T09:27:48.852Z,-18.22
2023-12-16T09:32:51.797Z,-18.11
2023-12-16T09:37:55.940Z,-17.86
2023-12-16T09:43:10.703Z,-17.87
2023-12-16T09:48:16.416Z,-18.02
2023-12-16T09:53:21.570Z,-18.14
2023-12-16T09:58:25.537Z,-18.24
2023-12-16T10:03:29.880Z,-18.33
2023-12-16T10:08:33.254Z,-18.37
2023-12-16T10:14:05.390Z,-18.48
2023-12-16T10:19:09.474Z,-18.64
2023-12-16T10:24:14.239Z,-18.80
2023-12-16T10:29:20.231Z,-18.85
2023-12-16T10:34:23.719Z,-18.86
2023-12-16T10:39:27.522Z,-18.89
2023-12-16T10:44:30.505Z,-18.91
2023-12-16T10:49:33.718Z,-19.06
2023-12-16T10:54:49.434Z,-19.31
2023-12-16T11:00:08.360Z,-19.40
2023-12-16T11:05:19.357Z,-19.46
2023-12-16T11:10:22.979Z,-19.49
2023-12-16T11:15:27.363Z,-19.53
2023-12-16T11:20:37.507Z,-19.68
2023-12-16T11:25:42.417Z,-19.84
2023-12-16T11:30:46.243Z,-19.85
2023-12-16T11:35:52.112Z,-19.95
2023-12-16T11:40:55.663Z,-20.01
2023-12-16T11:45:59.483Z,-20.11
2023-12-16T11:51:02.731Z,-20.25
2023-12-16T11:56:08.489Z,-20.25
2023-12-16T12:01:11.629Z,-20.31
2023-12-16T12:06:15.298Z,-20.43
2023-12-16T12:11:22.386Z,-20.53
2023-12-16T12:16:30.210Z,-20.53
2023-12-16T12:21:36.617Z,-20.55
2023-12-16T12:26:40.309Z,-20.62
2023-12-16T12:31:44.873Z,-20.67
2023-12-16T12:36:59.033Z,-20.74
2023-12-16T12:42:07.503Z,-20.94
2023-12-16T12:47:11.222Z,-20.82
2023-12-16T12:52:14.554Z,-20.97
2023-12-16T12:57:21.382Z,-21.22
2023-12-16T13:02:24.709Z,-21.39
2023-12-16T13:07:31.243Z,-21.63
2023-12-16T13:12:34.816Z,-21.89
2023-12-16T13:17:39.176Z,-22.09
2023-12-16T13:22:45.889Z,-22.34
2023-12-16T13:27:49.641Z,-22.55
2023-12-16T13:32:53.617Z,-22.67
2023-12-16T13:37:57.674Z,-22.78
2023-12-16T13:43:03.576Z,-22.89
2023-12-16T13:48:08.443Z,-22.97
2023-12-16T13:53:12.114Z,-23.05
2023-12-16T13:58:16.242Z,-23.15
2023-12-16T14:03:19.818Z,-23.31
2023-12-16T14:08:23.375Z,-23.41
2023-12-16T14:13:27.660Z,-23.51
2023-12-16T14:18:31.730Z,-23.64
2023-12-16T14:23:35.297Z,-23.73
2023-12-16T14:28:39.213Z,-23.88
2023-12-16T14:33:43.115Z,-23.91
2023-12-16T14:38:46.132Z,-23.98
2023-12-16T14:43:50.869Z,-24.06
2023-12-16T14:48:54.324Z,-24.19
2023-12-16T14:53:58.252Z,-24.26
2023-12-16T14:59:01.467Z,-24.36
2023-12-16T15:04:05.195Z,-24.50
2023-12-16T15:09:09.398Z,-24.55
2023-12-16T15:14:15.832Z,-24.69
2023-12-16T15:19:20.023Z,-24.80
2023-12-16T15:24:23.479Z,-24.88
2023-12-16T15:29:26.557Z,-24.89
2023-12-16T15:34:31.167Z,-24.93
2023-12-16T15:39:35.037Z,-25.02
2023-12-16T15:44:38.116Z,-25.13
2023-12-16T15:49:41.243Z,-25.21
2023-12-16T15:54:45.523Z,-25.41
2023-12-16T15:59:48.558Z,-25.25
2023-12-16T16:04:51.411Z,-25.31
2023-12-16T16:09:55.500Z,-25.41
2023-12-16T16:14:58.638Z,-25.45
2023-12-16T16:20:01.750Z,-25.49
2023-12-16T16:25:08.575Z,-25.48
2023-12-16T16:30:13.600Z,-25.51
2023-12-16T16:35:17.547Z,-25.54
2023-12-16T16:40:21.902Z,-25.54
2023-12-16T16:45:24.973Z,-25.61
2023-12-16T16:50:27.965Z,-25.75
2023-12-16T16:55:32.664Z,-25.81
2023-12-16T17:00:37.078Z,-25.87
2023-12-16T17:05:40.154Z,-25.88
2023-12-16T17:10:43.593Z,-25.96
2023-12-16T17:15:46.494Z,-25.99
2023-12-16T17:20:50.241Z,-26.06
2023-12-16T17:25:53.647Z,-26.23
2023-12-16T17:30:58.094Z,-26.35
2023-12-16T17:36:05.525Z,-26.40
2023-12-16T17:41:09.770Z,-26.39
2023-12-16T17:46:12.936Z,-26.40
2023-12-16T17:51:16.659Z,-26.56
2023-12-16T17:56:19.856Z,-26.65
2023-12-16T18:01:23.118Z,-26.68
2023-12-16T18:06:26.743Z,-26.75
2023-12-16T18:11:30.153Z,-26.81
2023-12-16T18:16:35.157Z,-27.00
2023-12-16T18:21:38.268Z,-26.91
2023-12-16T18:26:41.384Z,-26.95
2023-12-16T18:31:45.211Z,-26.94
2023-12-16T18:36:48.254Z,-27.03
2023-12-16T18:41:53.264Z,-27.14
2023-12-16T18:46:56.344Z,-27.16
2023-12-16T18:51:59.452Z,-27.22
2023-12-16T18:57:03.650Z,-27.21
2023-12-16T19:02:07.186Z,-27.30
2023-12-16T19:07:10.152Z,-27.29
2023-12-16T19:12:14.733Z,-27.32
2023-12-16T19:17:17.655Z,-27.38
2023-12-16T19:22:20.825Z,-27.45
2023-12-16T19:27:24.243Z,-27.55
2023-12-16T19:32:27.194Z,-27.62
2023-12-16T19:37:30.295Z,-27.80
2023-12-16T19:42:33.619Z,-27.77
2023-12-16T19:47:37.077Z,-27.80
2023-12-16T19:52:40.135Z,-27.82
2023-12-16T19:57:45.930Z,-27.80
2023-12-16T20:02:49.384Z,-27.81
2023-12-16T20:07:52.197Z,-27.86
2023-12-16T20:12:55.689Z,-27.91
2023-12-16T20:17:59.309Z,-27.91
2023-12-16T20:23:03.040Z,-27.90
2023-12-16T20:28:06.805Z,-27.98
2023-12-16T20:33:10.132Z,-28.02
2023-12-16T20:38:31.365Z,-28.02
2023-12-16T20:43:35.089Z,-28.14
2023-12-16T20:48:42.979Z,-28.15
2023-12-16T20:53:46.491Z,-28.23
2023-12-16T20:58:50.726Z,-28.29
2023-12-16T21:03:53.735Z,-28.34
2023-12-16T21:08:56.768Z,-28.39
2023-12-16T21:14:01.004Z,-28.46
2023-12-16T21:19:05.316Z,-28.40
2023-12-16T21:24:09.046Z,-28.43
2023-12-16T21:29:12.971Z,-28.47
2023-12-16T21:34:16.733Z,-28.51
2023-12-16T21:39:20.324Z,-28.50
2023-12-16T21:44:23.797Z,-28.58
2023-12-16T21:49:27.123Z,-28.61
2023-12-16T21:54:34.148Z,-28.63
2023-12-16T21:59:37.078Z,-28.68
2023-12-16T22:04:40.516Z,-28.68
2023-12-16T22:09:43.772Z,-28.72
2023-12-16T22:14:47.392Z,-28.79
2023-12-16T22:19:57.676Z,-28.77
2023-12-16T22:25:01.445Z,-28.98
2023-12-16T22:30:06.790Z,-28.94
2023-12-16T22:35:09.986Z,-28.97
2023-12-16T22:40:32.094Z,-29.09
2023-12-16T22:45:36.656Z,-29.07
2023-12-16T22:50:39.706Z,-29.15
2023-12-16T22:55:43.823Z,-29.20
2023-12-16T23:00:48.419Z,-29.26
2023-12-16T23:05:51.903Z,-29.26
2023-12-16T23:11:13.798Z,-29.21
2023-12-16T23:16:16.685Z,-29.16
2023-12-16T23:21:20.238Z,-29.23
2023-12-16T23:26:24.639Z,-29.30
2023-12-16T23:31:27.455Z,-29.19
2023-12-16T23:36:30.421Z,-29.14
2023-12-16T23:41:33.970Z,-29.22
2023-12-16T23:46:36.796Z,-29.27
2023-12-16T23:51:40.757Z,-29.27
2023-12-16T23:56:44.672Z,-29.32
